Time;durP1;ratioP1;P1;durP2;ratioP2;P2;SDS_P1;SDS_P2;PMS_P1;PMS_P2;Temp;Humidity;BMP_temperature;BMP_pressure;BME280_temperature;BME280_humidity;BME280_pressure;Samples;Min_cycle;Max_cycle;Signal;HPM_P1;HPM_P2
2023/06/05 00:04:35;;;;;;;1.60;0.98;;;;;;;;;;12881265;22;20032;-87
2023/06/05 00:09:39;;;;;;;1.13;1.00;;;;;;;;;;12910138;23;20028;-88
2023/06/05 00:14:45;;;;;;;1.40;1.00;;;;;;;;;;12882322;22;20763;-88
2023/06/05 00:19:49;;;;;;;1.85;1.13;;;;;;;;;;12883030;23;20071;-88
2023/06/05 00:24:52;;;;;;;1.17;1.08;;;;;;;;;;12883568;22;20039;-88
2023/06/05 00:29:57;;;;;;;1.08;0.98;;;;;;;;;;12883461;23;20024;-88
2023/06/05 00:35:01;;;;;;;1.33;1.08;;;;;;;;;;12882032;22;20361;-88
2023/06/05 00:40:06;;;;;;;0.95;0.80;;;;;;;;;;12883661;23;20024;-89
2023/06/05 00:45:11;;;;;;;1.05;0.90;;;;;;;;;;12882515;22;20078;-88
2023/06/05 00:50:17;;;;;;;1.55;1.10;;;;;;;;;;12882590;23;20572;-88
2023/06/05 00:55:21;;;;;;;1.47;1.00;;;;;;;;;;12880632;22;20030;-89
2023/06/05 01:00:26;;;;;;;1.77;1.08;;;;;;;;;;12882850;23;20115;-88
2023/06/05 01:05:30;;;;;;;1.60;1.10;;;;;;;;;;12907337;22;20024;-88
2023/06/05 01:10:33;;;;;;;3.45;1.20;;;;;;;;;;12882650;23;20036;-89
2023/06/05 01:15:39;;;;;;;1.00;0.75;;;;;;;;;;12906637;22;20024;-88
2023/06/05 01:20:43;;;;;;;1.15;0.90;;;;;;;;;;12883978;23;20031;-88
2023/06/05 01:25:48;;;;;;;2.20;0.90;;;;;;;;;;12880014;22;20048;-89
2023/06/05 01:31:03;;;;;;;1.85;1.13;;;;;;;;;;12882434;23;20090;-89
2023/06/05 01:36:09;;;;;;;0.90;0.73;;;;;;;;;;12880925;22;20460;-89
2023/06/05 01:41:15;;;;;;;1.65;0.82;;;;;;;;;;12906853;23;20456;-89
2023/06/05 01:46:22;;;;;;;0.90;0.82;;;;;;;;;;12880609;23;20026;-87
2023/06/05 01:51:25;;;;;;;2.78;0.82;;;;;;;;;;12874992;23;20027;-89
2023/06/05 01:56:32;;;;;;;1.42;1.02;;;;;;;;;;12906270;22;20024;-88
2023/06/05 02:01:36;;;;;;;1.20;0.80;;;;;;;;;;12881351;23;20032;-89
2023/06/05 02:06:42;;;;;;;1.77;0.70;;;;;;;;;;12880123;23;20131;-89
2023/06/05 02:11:53;;;;;;;1.42;0.90;;;;;;;;;;12880077;23;20414;-89
2023/06/05 02:16:56;;;;;;;1.75;0.90;;;;;;;;;;12879855;23;20034;-89
2023/06/05 02:22:00;;;;;;;1.20;0.82;;;;;;;;;;12880028;23;20535;-89
2023/06/05 02:27:08;;;;;;;1.08;0.80;;;;;;;;;;12879615;23;20102;-88
2023/06/05 02:32:12;;;;;;;1.52;1.00;;;;;;;;;;12849720;22;20043;-84
2023/06/05 02:37:17;;;;;;;1.13;1.00;;;;;;;;;;12869660;23;20070;-84
2023/06/05 02:42:22;;;;;;;1.83;1.10;;;;;;;;;;12884147;23;20367;-85
2023/06/05 02:47:25;;;;;;;1.83;1.00;;;;;;;;;;12908331;23;20028;-84
2023/06/05 02:52:31;;;;;;;1.88;1.00;;;;;;;;;;12883330;23;20381;-83
2023/06/05 02:57:41;;;;;;;1.08;0.95;;;;;;;;;;12885520;23;20028;-84
2023/06/05 03:02:48;;;;;;;1.30;1.00;;;;;;;;;;12884770;23;20038;-83
2023/06/05 03:07:55;;;;;;;1.67;1.15;;;;;;;;;;12910681;22;20028;-84
2023/06/05 03:13:00;;;;;;;2.40;1.13;;;;;;;;;;12920517;23;20039;-83
2023/06/05 03:18:07;;;;;;;3.83;0.82;;;;;;;;;;12885380;23;20380;-83
2023/06/05 03:23:12;;;;;;;2.00;0.88;;;;;;;;;;12888233;23;20490;-83
2023/06/05 03:28:17;;;;;;;1.30;0.93;;;;;;;;;;12886688;23;20080;-84
2023/06/05 03:33:22;;;;;;;0.88;0.73;;;;;;;;;;12886667;22;20055;-84
2023/06/05 03:38:29;;;;;;;3.90;0.98;;;;;;;;;;12885481;23;20024;-84
2023/06/05 03:43:35;;;;;;;2.35;0.90;;;;;;;;;;12886472;22;20057;-84
2023/06/05 03:48:39;;;;;;;1.20;1.10;;;;;;;;;;12885531;23;20086;-83
2023/06/05 03:53:43;;;;;;;1.33;0.80;;;;;;;;;;12885682;22;20081;-83
2023/06/05 03:58:48;;;;;;;0.95;0.80;;;;;;;;;;12885535;23;20366;-84
2023/06/05 04:03:52;;;;;;;1.13;0.90;;;;;;;;;;12885181;22;20085;-84
2023/06/05 04:08:55;;;;;;;1.27;0.88;;;;;;;;;;12886153;23;20103;-82
2023/06/05 04:14:00;;;;;;;0.93;0.75;;;;;;;;;;12917719;22;20075;-83
2023/06/05 04:19:04;;;;;;;1.52;1.00;;;;;;;;;;12884288;23;20479;-83
2023/06/05 04:24:09;;;;;;;1.30;0.80;;;;;;;;;;12882553;22;20082;-83
2023/06/05 04:29:15;;;;;;;1.42;0.70;;;;;;;;;;12885055;23;20402;-82
2023/06/05 04:34:19;;;;;;;1.63;1.00;;;;;;;;;;12884679;22;20111;-82
2023/06/05 04:39:23;;;;;;;0.98;0.90;;;;;;;;;;12884292;23;20099;-82
2023/06/05 04:44:28;;;;;;;1.10;0.75;;;;;;;;;;12884361;22;20020;-82
2023/06/05 04:49:32;;;;;;;1.00;0.80;;;;;;;;;;12883642;23;20119;-83
2023/06/05 04:54:35;;;;;;;1.20;0.88;;;;;;;;;;12883333;22;20024;-82
2023/06/05 04:59:40;;;;;;;0.90;0.80;;;;;;;;;;12881218;23;20028;-82
2023/06/05 05:04:44;;;;;;;1.35;0.93;;;;;;;;;;12880921;22;20023;-82
2023/06/05 05:09:49;;;;;;;1.00;0.80;;;;;;;;;;12880626;23;20052;-83
2023/06/05 05:14:54;;;;;;;1.92;0.90;;;;;;;;;;12877898;22;20097;-82
2023/06/05 05:19:58;;;;;;;1.15;0.60;;;;;;;;;;12911061;23;20020;-81
2023/06/05 05:25:02;;;;;;;0.90;0.70;;;;;;;;;;12888996;22;20082;-82
2023/06/05 05:30:09;;;;;;;1.95;0.88;;;;;;;;;;12907072;23;20020;-83
2023/06/05 05:35:13;;;;;;;0.63;0.52;;;;;;;;;;12877256;22;20035;-83
2023/06/05 05:40:17;;;;;;;1.80;0.80;;;;;;;;;;12888532;23;20406;-82
2023/06/05 05:45:21;;;;;;;1.55;0.90;;;;;;;;;;12887599;22;20719;-83
2023/06/05 05:50:25;;;;;;;1.20;0.73;;;;;;;;;;12912973;23;20020;-83
2023/06/05 05:55:28;;;;;;;2.00;0.65;;;;;;;;;;12936431;22;20504;-84
2023/06/05 06:00:34;;;;;;;1.23;0.90;;;;;;;;;;12889675;23;20050;-82
2023/06/05 06:05:38;;;;;;;1.33;0.90;;;;;;;;;;12887770;22;20024;-81
2023/06/05 06:10:42;;;;;;;2.17;0.88;;;;;;;;;;12914992;23;20016;-83
2023/06/05 06:15:47;;;;;;;0.98;0.68;;;;;;;;;;12886912;22;20451;-83
2023/06/05 06:20:50;;;;;;;1.90;0.73;;;;;;;;;;12887876;23;20024;-84
2023/06/05 06:25:54;;;;;;;4.22;1.10;;;;;;;;;;12887161;22;20015;-85
2023/06/05 06:30:58;;;;;;;4.78;1.42;;;;;;;;;;12885304;23;20016;-84
2023/06/05 06:36:02;;;;;;;3.13;1.65;;;;;;;;;;12886647;22;20024;-85
2023/06/05 06:41:06;;;;;;;5.00;1.60;;;;;;;;;;12888292;23;20082;-84
2023/06/05 06:46:11;;;;;;;2.28;1.15;;;;;;;;;;12931077;22;20336;-84
2023/06/05 06:51:14;;;;;;;1.42;0.90;;;;;;;;;;12912815;23;20056;-82
2023/06/05 06:56:18;;;;;;;2.53;0.77;;;;;;;;;;12913434;22;20348;-83
2023/06/05 07:01:24;;;;;;;1.40;0.70;;;;;;;;;;12885850;23;20336;-82
2023/06/05 07:06:27;;;;;;;0.80;0.67;;;;;;;;;;12928363;22;20016;-83
2023/06/05 07:11:31;;;;;;;1.40;0.70;;;;;;;;;;12912029;23;20039;-84
2023/06/05 07:16:35;;;;;;;2.50;0.95;;;;;;;;;;12885617;23;20063;-84
2023/06/05 07:21:38;;;;;;;0.80;0.52;;;;;;;;;;12928591;23;20036;-86
2023/06/05 07:26:42;;;;;;;0.95;0.70;;;;;;;;;;12885395;23;20028;-84
2023/06/05 07:31:49;;;;;;;0.90;0.70;;;;;;;;;;12887806;23;20032;-85
2023/06/05 07:36:53;;;;;;;0.95;0.65;;;;;;;;;;12927047;22;20039;-85
2023/06/05 07:41:57;;;;;;;1.65;0.50;;;;;;;;;;12914059;23;20525;-86
2023/06/05 07:47:01;;;;;;;0.95;0.60;;;;;;;;;;12886145;23;20031;-85
2023/06/05 07:52:05;;;;;;;0.40;0.40;;;;;;;;;;12887073;23;20039;-86
2023/06/05 07:57:09;;;;;;;1.55;0.93;;;;;;;;;;12884341;23;20359;-84
2023/06/05 08:02:13;;;;;;;3.35;0.82;;;;;;;;;;12885044;23;20055;-85
2023/06/05 08:07:16;;;;;;;0.57;0.50;;;;;;;;;;12889610;23;20090;-84
2023/06/05 08:12:20;;;;;;;0.55;0.50;;;;;;;;;;12889664;23;20020;-85
2023/06/05 08:17:24;;;;;;;1.92;0.57;;;;;;;;;;12888246;23;20403;-84
2023/06/05 08:22:29;;;;;;;0.40;0.40;;;;;;;;;;12888964;23;20051;-85
2023/06/05 08:27:32;;;;;;;1.27;0.30;;;;;;;;;;12890015;23;20177;-86
2023/06/05 08:32:37;;;;;;;0.88;0.50;;;;;;;;;;12888233;23;20082;-86
2023/06/05 08:37:41;;;;;;;0.93;0.52;;;;;;;;;;12887132;23;20012;-85
2023/06/05 08:42:45;;;;;;;0.93;0.38;;;;;;;;;;12888961;23;20497;-85
2023/06/05 08:47:52;;;;;;;1.38;0.60;;;;;;;;;;12915471;22;20082;-85
2023/06/05 08:52:59;;;;;;;4.80;0.50;;;;;;;;;;12915890;23;20028;-84
2023/06/05 08:58:04;;;;;;;0.50;0.50;;;;;;;;;;12887261;23;20020;-86
2023/06/05 09:03:14;;;;;;;0.57;0.40;;;;;;;;;;12924939;23;20376;-84
2023/06/05 09:08:20;;;;;;;1.67;0.40;;;;;;;;;;12912315;22;20055;-84
2023/06/05 09:13:24;;;;;;;0.77;0.40;;;;;;;;;;12887120;22;20078;-85
2023/06/05 09:18:29;;;;;;;1.63;0.80;;;;;;;;;;12922214;23;20355;-86
2023/06/05 09:23:33;;;;;;;1.00;0.60;;;;;;;;;;12887658;22;20020;-83
2023/06/05 09:28:36;;;;;;;1.02;0.80;;;;;;;;;;12883883;23;20016;-85
2023/06/05 09:33:41;;;;;;;0.90;0.70;;;;;;;;;;12884773;22;20372;-85
2023/06/05 09:38:45;;;;;;;1.80;0.80;;;;;;;;;;12885370;23;20044;-85
2023/06/05 09:43:49;;;;;;;1.02;0.60;;;;;;;;;;12910726;22;20028;-84
2023/06/05 09:48:59;;;;;;;0.50;0.50;;;;;;;;;;12918013;23;20020;-85
2023/06/05 09:54:04;;;;;;;1.20;0.90;;;;;;;;;;12885424;22;20028;-86
2023/06/05 09:59:09;;;;;;;0.70;0.50;;;;;;;;;;12886589;23;20031;-85
2023/06/05 10:04:16;;;;;;;1.63;0.53;;;;;;;;;;12884131;22;20025;-85
2023/06/05 10:09:20;;;;;;;2.45;0.82;;;;;;;;;;12885118;23;20258;-85
2023/06/05 10:14:23;;;;;;;2.78;0.60;;;;;;;;;;12882451;22;20035;-85
2023/06/05 10:19:29;;;;;;;1.08;0.50;;;;;;;;;;12883823;23;20040;-86
2023/06/05 10:24:35;;;;;;;1.13;0.73;;;;;;;;;;12882111;22;20023;-85
2023/06/05 10:29:53;;;;;;;0.93;0.60;;;;;;;;;;12883482;22;20024;-85
2023/06/05 10:35:11;;;;;;;0.93;0.65;;;;;;;;;;12882086;22;20086;-85
2023/06/05 10:40:17;;;;;;;0.90;0.80;;;;;;;;;;12883331;23;20055;-85
2023/06/05 10:45:42;;;;;;;1.67;0.85;;;;;;;;;;12881647;22;20024;-85
2023/06/05 10:50:47;;;;;;;0.93;0.80;;;;;;;;;;12873274;23;20502;-85
2023/06/05 10:55:50;;;;;;;2.42;1.10;;;;;;;;;;12881953;22;20027;-86
2023/06/05 11:01:22;;;;;;;1.00;0.70;;;;;;;;;;12883499;23;20024;-85
2023/06/05 11:06:27;;;;;;;1.98;1.00;;;;;;;;;;12925686;22;20527;-84
2023/06/05 11:11:30;;;;;;;;;;;;;;;;;;12882566;23;20083;-85
2023/06/05 11:16:36;;;;;;;0.98;0.55;;;;;;;;;;12881359;23;19922;-85
2023/06/05 11:22:07;;;;;;;1.10;0.70;;;;;;;;;;12881994;23;20749;-85
2023/06/05 11:27:43;;;;;;;0.73;0.47;;;;;;;;;;12919337;22;20472;-86
2023/06/05 11:32:46;;;;;;;0.98;0.68;;;;;;;;;;12883131;23;20024;-86
2023/06/05 11:38:08;;;;;;;0.95;0.75;;;;;;;;;;12918883;22;20264;-85
2023/06/05 11:43:12;;;;;;;0.95;0.70;;;;;;;;;;12884207;23;20074;-86
2023/06/05 11:48:16;;;;;;;1.30;0.90;;;;;;;;;;12909361;22;20538;-86
2023/06/05 11:53:21;;;;;;;1.70;0.80;;;;;;;;;;12883539;23;20020;-84
2023/06/05 11:58:24;;;;;;;;;;;;;;;;;;12909459;23;20486;-84
2023/06/05 12:03:28;;;;;;;1.67;0.80;;;;;;;;;;12880622;22;19931;-84
2023/06/05 12:08:35;;;;;;;0.85;0.80;;;;;;;;;;12895964;23;20039;-85
2023/06/05 12:13:48;;;;;;;1.75;0.80;;;;;;;;;;12881654;22;20036;-85
2023/06/05 12:18:52;;;;;;;1.10;0.90;;;;;;;;;;12879811;23;20020;-84
2023/06/05 12:24:06;;;;;;;2.40;0.90;;;;;;;;;;12910976;22;20030;-85
2023/06/05 12:29:12;;;;;;;1.20;0.80;;;;;;;;;;12880645;23;20020;-86
2023/06/05 12:34:16;;;;;;;1.00;0.80;;;;;;;;;;12880195;22;20415;-86
2023/06/05 12:39:21;;;;;;;3.13;1.00;;;;;;;;;;12879767;23;20085;-86
2023/06/05 12:44:25;;;;;;;1.15;0.90;;;;;;;;;;12882889;22;20016;-86
2023/06/05 12:49:28;;;;;;;10.52;1.85;;;;;;;;;;12913916;23;20031;-86
2023/06/05 12:54:33;;;;;;;1.15;0.73;;;;;;;;;;12882201;22;20483;-85
2023/06/05 12:59:36;;;;;;;;;;;;;;;;;;12912459;23;20360;-85
2023/06/05 13:04:40;;;;;;;1.30;0.77;;;;;;;;;;12909201;22;19969;-87
2023/06/05 13:09:45;;;;;;;21.57;5.13;;;;;;;;;;12882960;23;20098;-85
2023/06/05 13:14:48;;;;;;;;;;;;;;;;;;12883316;22;20051;-86
2023/06/05 13:19:53;;;;;;;0.90;0.70;;;;;;;;;;12883043;23;20344;-85
2023/06/05 13:24:57;;;;;;;2.50;0.77;;;;;;;;;;12910408;22;20035;-85
2023/06/05 13:30:02;;;;;;;;;;;;;;;;;;12911401;23;20624;-84
2023/06/05 13:35:07;;;;;;;;;;;;;;;;;;12912252;22;20294;-88
2023/06/05 13:40:15;;;;;;;;;;;;;;;;;;12913562;23;19919;-86
2023/06/05 13:45:18;;;;;;;0.85;0.70;;;;;;;;;;12882575;22;19916;-86
2023/06/05 13:50:21;;;;;;;2.20;1.00;;;;;;;;;;12884343;23;20025;-86
2023/06/05 13:55:26;;;;;;;1.95;0.85;;;;;;;;;;12883486;22;20028;-85
2023/06/05 14:00:30;;;;;;;1.23;0.90;;;;;;;;;;12882177;23;20108;-85
2023/06/05 14:05:33;;;;;;;1.00;0.70;;;;;;;;;;12879512;22;20031;-84
2023/06/05 14:10:38;;;;;;;0.95;0.73;;;;;;;;;;12881520;23;20616;-84
2023/06/05 14:15:41;;;;;;;0.93;0.82;;;;;;;;;;12882441;22;20554;-84
2023/06/05 14:20:45;;;;;;;1.80;0.77;;;;;;;;;;12928336;23;20099;-84
2023/06/05 14:25:52;;;;;;;1.60;0.90;;;;;;;;;;12885171;22;20083;-86
2023/06/05 14:30:55;;;;;;;1.45;0.88;;;;;;;;;;12895378;22;20442;-80
2023/06/05 14:35:59;;;;;;;1.50;1.00;;;;;;;;;;12869621;23;20051;-81
2023/06/05 14:41:08;;;;;;;0.53;0.53;;;;;;;;;;12899862;23;20024;-80
2023/06/05 14:46:17;;;;;;;0.80;0.70;;;;;;;;;;12934753;22;20019;-81
2023/06/05 14:51:21;;;;;;;1.45;0.80;;;;;;;;;;12917026;23;20027;-80
2023/06/05 14:56:35;;;;;;;0.85;0.68;;;;;;;;;;12933006;22;20095;-80
2023/06/05 15:01:39;;;;;;;;;;;;;;;;;;12888537;23;20024;-80
2023/06/05 15:06:43;;;;;;;1.40;0.63;;;;;;;;;;12928496;22;19965;-80
2023/06/05 15:11:48;;;;;;;0.77;0.60;;;;;;;;;;12913814;23;20027;-80
2023/06/05 15:16:52;;;;;;;0.80;0.60;;;;;;;;;;12932237;22;20395;-80
2023/06/05 15:22:13;;;;;;;1.08;0.85;;;;;;;;;;12918156;23;20031;-79
2023/06/05 15:27:49;;;;;;;2.17;0.95;;;;;;;;;;12917339;22;20027;-80
2023/06/05 15:32:52;;;;;;;1.58;0.68;;;;;;;;;;12916451;22;20035;-80
2023/06/05 15:37:56;;;;;;;0.73;0.60;;;;;;;;;;12926686;23;20512;-80
2023/06/05 15:43:07;;;;;;;1.02;0.82;;;;;;;;;;12916741;22;20474;-80
2023/06/05 15:48:11;;;;;;;1.98;0.90;;;;;;;;;;12916503;23;20020;-80
2023/06/05 15:53:15;;;;;;;0.88;0.70;;;;;;;;;;12925910;22;20108;-80
2023/06/05 15:58:29;;;;;;;1.13;0.90;;;;;;;;;;12925708;23;20059;-80
2023/06/05 16:03:40;;;;;;;1.10;0.70;;;;;;;;;;12902718;22;20032;-80
2023/06/05 16:08:43;;;;;;;0.45;0.45;;;;;;;;;;12889454;23;20531;-80
2023/06/05 16:13:50;;;;;;;1.50;0.93;;;;;;;;;;12922221;22;20024;-80
2023/06/05 16:19:02;;;;;;;4.15;1.20;;;;;;;;;;12922050;23;20059;-80
2023/06/05 16:24:08;;;;;;;1.25;0.82;;;;;;;;;;12920116;22;20075;-79
2023/06/05 16:29:20;;;;;;;0.70;0.70;;;;;;;;;;12920404;23;20031;-80
2023/06/05 16:34:30;;;;;;;0.95;0.70;;;;;;;;;;12919806;22;20027;-80
2023/06/05 16:39:40;;;;;;;1.75;0.80;;;;;;;;;;12918567;23;20024;-80
2023/06/05 16:44:45;;;;;;;0.47;0.47;;;;;;;;;;12888566;22;20020;-80
2023/06/05 16:49:48;;;;;;;1.40;0.55;;;;;;;;;;12916959;23;20461;-80
2023/06/05 16:54:54;;;;;;;0.80;0.68;;;;;;;;;;12878528;22;20392;-80
2023/06/05 17:00:07;;;;;;;;;;;;;;;;;;12888979;23;20549;-80
2023/06/05 17:05:11;;;;;;;0.85;0.70;;;;;;;;;;12914031;22;20212;-80
2023/06/05 17:10:20;;;;;;;0.95;0.73;;;;;;;;;;12916283;23;20352;-80
2023/06/05 17:15:27;;;;;;;2.45;0.65;;;;;;;;;;12914672;22;20043;-80
2023/06/05 17:20:31;;;;;;;2.35;0.70;;;;;;;;;;12935257;23;20043;-81
2023/06/05 17:25:35;;;;;;;0.70;0.63;;;;;;;;;;12913915;22;20017;-80
2023/06/05 17:30:40;;;;;;;0.98;0.88;;;;;;;;;;12921083;23;20027;-80
2023/06/05 17:35:44;;;;;;;2.53;0.95;;;;;;;;;;12934652;22;20027;-80
2023/06/05 17:40:47;;;;;;;1.60;0.70;;;;;;;;;;12886056;23;20027;-80
2023/06/05 17:45:52;;;;;;;1.33;0.57;;;;;;;;;;12913480;22;20365;-80
2023/06/05 17:50:57;;;;;;;1.38;0.63;;;;;;;;;;12914198;23;20405;-80
2023/06/05 17:56:00;;;;;;;3.10;0.80;;;;;;;;;;12913943;22;20275;-80
2023/06/05 18:01:05;;;;;;;0.57;0.57;;;;;;;;;;12913462;23;20031;-80
2023/06/05 18:06:09;;;;;;;1.42;0.80;;;;;;;;;;12914171;22;20028;-80
2023/06/05 18:11:14;;;;;;;1.10;0.65;;;;;;;;;;12887166;23;20036;-80
2023/06/05 18:16:18;;;;;;;0.75;0.60;;;;;;;;;;12886655;23;20023;-81
2023/06/05 18:21:25;;;;;;;1.60;0.87;;;;;;;;;;12899687;23;20024;-80
2023/06/05 18:26:30;;;;;;;1.17;0.70;;;;;;;;;;12943404;22;20633;-81
2023/06/05 18:31:38;;;;;;;1.17;0.75;;;;;;;;;;12898421;23;20055;-80
2023/06/05 18:36:42;;;;;;;1.85;0.70;;;;;;;;;;12914143;22;20074;-80
2023/06/05 18:41:45;;;;;;;2.10;0.70;;;;;;;;;;12913221;23;20024;-80
2023/06/05 18:46:52;;;;;;;0.88;0.57;;;;;;;;;;12886959;23;20039;-81
2023/06/05 18:51:55;;;;;;;1.30;0.60;;;;;;;;;;12886187;23;20027;-81
2023/06/05 18:56:59;;;;;;;1.50;0.98;;;;;;;;;;12927188;22;20086;-81
2023/06/05 19:02:07;;;;;;;1.10;0.77;;;;;;;;;;12927330;23;20042;-81
2023/06/05 19:07:11;;;;;;;0.98;0.80;;;;;;;;;;12913161;22;20071;-81
2023/06/05 19:12:18;;;;;;;2.47;0.98;;;;;;;;;;12914544;23;20040;-81
2023/06/05 19:17:28;;;;;;;1.20;0.80;;;;;;;;;;12924858;22;20024;-81
2023/06/05 19:22:34;;;;;;;3.67;0.70;;;;;;;;;;12871863;23;20020;-80
2023/06/05 19:27:45;;;;;;;1.60;1.10;;;;;;;;;;12924350;22;20051;-81
2023/06/05 19:33:00;;;;;;;1.63;0.95;;;;;;;;;;12912131;22;20082;-81
2023/06/05 19:38:09;;;;;;;1.40;1.00;;;;;;;;;;12886350;23;20028;-81
2023/06/05 19:43:16;;;;;;;4.30;1.38;;;;;;;;;;12899781;22;20024;-81
2023/06/05 19:48:21;;;;;;;1.50;0.80;;;;;;;;;;12886993;23;20086;-80
2023/06/05 19:53:27;;;;;;;1.20;0.70;;;;;;;;;;12845631;22;20101;-81
2023/06/05 19:58:31;;;;;;;1.35;0.75;;;;;;;;;;12913530;23;20078;-80
2023/06/05 20:03:37;;;;;;;0.95;0.80;;;;;;;;;;12890206;22;20145;-80
2023/06/05 20:08:43;;;;;;;2.30;1.02;;;;;;;;;;12889240;23;20461;-81
2023/06/05 20:13:47;;;;;;;2.35;1.08;;;;;;;;;;12889122;22;20021;-81
2023/06/05 20:19:01;;;;;;;1.80;1.20;;;;;;;;;;12902348;23;20027;-80
2023/06/05 20:24:06;;;;;;;2.30;1.60;;;;;;;;;;12889394;22;20028;-81
2023/06/05 20:34:58;;;;;;;2.40;1.48;;;;;;;;;;12681360;23;20088;-82
2023/06/05 20:40:09;;;;;;;1.63;0.93;;;;;;;;;;12723150;23;20413;-83
2023/06/05 20:45:13;;;;;;;1.02;0.93;;;;;;;;;;12721079;23;20045;-82
2023/06/05 20:50:20;;;;;;;2.55;1.15;;;;;;;;;;12721680;23;20026;-82
2023/06/05 20:55:24;;;;;;;1.63;1.27;;;;;;;;;;12722030;23;20429;-82
2023/06/05 21:00:27;;;;;;;1.30;1.08;;;;;;;;;;12747575;23;20080;-82
2023/06/05 21:05:32;;;;;;;4.60;1.50;;;;;;;;;;12745015;23;20072;-82
2023/06/05 21:10:36;;;;;;;2.42;1.42;;;;;;;;;;12746454;23;20022;-82
2023/06/05 21:15:39;;;;;;;2.53;1.58;;;;;;;;;;12724228;23;20551;-82
2023/06/05 21:20:44;;;;;;;2.35;1.35;;;;;;;;;;12721838;23;20037;-82
2023/06/05 21:25:47;;;;;;;2.63;1.20;;;;;;;;;;12745139;23;20330;-84
2023/06/05 21:30:54;;;;;;;1.67;1.38;;;;;;;;;;12720705;23;20021;-82
2023/06/05 21:35:58;;;;;;;2.53;1.25;;;;;;;;;;12746462;23;20036;-82
2023/06/05 21:41:02;;;;;;;2.00;1.50;;;;;;;;;;12721924;23;20500;-81
2023/06/05 21:46:05;;;;;;;2.28;1.60;;;;;;;;;;12737334;23;20052;-82
2023/06/05 21:51:10;;;;;;;1.83;1.35;;;;;;;;;;12738784;23;20026;-81
2023/06/05 21:56:13;;;;;;;1.67;1.20;;;;;;;;;;12718417;23;20100;-82
2023/06/05 22:01:17;;;;;;;1.55;1.00;;;;;;;;;;12743905;23;20017;-82
2023/06/05 22:06:26;;;;;;;2.67;1.20;;;;;;;;;;12736294;23;20056;-81
2023/06/05 22:11:32;;;;;;;2.13;1.33;;;;;;;;;;12736646;23;20024;-82
2023/06/05 22:16:37;;;;;;;;;;;;;;;;;;12717955;23;20381;-82
2023/06/05 22:21:43;;;;;;;2.60;1.00;;;;;;;;;;12741849;23;19924;-82
2023/06/05 22:26:47;;;;;;;1.15;0.90;;;;;;;;;;12716225;23;20040;-81
2023/06/05 22:31:51;;;;;;;1.50;1.02;;;;;;;;;;12741941;23;20088;-81
2023/06/05 22:37:03;;;;;;;1.00;0.80;;;;;;;;;;12716830;23;20029;-82
2023/06/05 22:42:07;;;;;;;1.65;1.02;;;;;;;;;;12716665;23;20032;-81
2023/06/05 22:47:11;;;;;;;1.27;0.70;;;;;;;;;;12716148;23;20688;-81
2023/06/05 22:52:15;;;;;;;2.35;1.63;;;;;;;;;;12731289;23;20040;-81
2023/06/05 22:57:19;;;;;;;1.90;1.17;;;;;;;;;;12720752;23;20021;-82
2023/06/05 23:02:23;;;;;;;1.83;1.05;;;;;;;;;;12723619;23;20048;-81
2023/06/05 23:07:28;;;;;;;1.77;1.08;;;;;;;;;;12733069;23;20052;-82
2023/06/05 23:12:31;;;;;;;1.50;1.00;;;;;;;;;;12719460;23;20113;-81
2023/06/05 23:17:34;;;;;;;1.90;1.08;;;;;;;;;;12719392;23;20030;-82
2023/06/05 23:22:39;;;;;;;2.17;1.10;;;;;;;;;;12748167;23;20048;-82
2023/06/05 23:27:42;;;;;;;2.08;1.13;;;;;;;;;;12719887;23;20052;-82
2023/06/05 23:32:46;;;;;;;2.63;1.40;;;;;;;;;;12722900;23;20025;-81
2023/06/05 23:37:50;;;;;;;1.20;0.93;;;;;;;;;;12749363;23;20018;-82
2023/06/05 23:42:54;;;;;;;1.02;0.93;;;;;;;;;;12737097;23;20037;-82
2023/06/05 23:47:57;;;;;;;1.20;0.95;;;;;;;;;;12724811;23;20478;-81
2023/06/05 23:53:02;;;;;;;1.55;1.00;;;;;;;;;;12752055;23;20037;-83
2023/06/05 23:58:06;;;;;;;1.85;1.30;;;;;;;;;;12728539;23;20037;-83
